Terminal Aerodrome Forecast
Issued by NWS

Home | Current Version | Previous Version | Text Only | Print | Product List | Glossary On
Versions: 1 2 3 4 5 6 7 8 9 10 11 12 13
000
FTUS43 KGRB 171129
TAFMTW
TAF
KMTW 171129Z 1712/1812 24012G17KT P6SM SCT250 WS012/26035KT
     FM171400 25011KT P6SM SCT250
     FM172300 22006KT P6SM SCT250
     FM180900 22008KT P6SM SKC WS013/25035KT=

USA.gov is the U.S. government's official web portal to all federal, state and local government web resources and services.